createdAt,value
2022-11-29T00:01:40.711Z,4.30
2022-11-29T00:04:09.211Z,4.30
2022-11-29T00:06:39.183Z,4.30
2022-11-29T00:09:09.515Z,4.10
2022-11-29T00:11:57.773Z,4.00
2022-11-29T00:14:28.263Z,3.90
2022-11-29T00:16:59.383Z,3.90
2022-11-29T00:19:27.826Z,3.90
2022-11-29T00:21:57.542Z,3.80
2022-11-29T00:24:25.854Z,3.70
2022-11-29T00:26:54.189Z,3.60
2022-11-29T00:29:22.463Z,3.70
2022-11-29T00:31:50.740Z,3.70
2022-11-29T00:34:19.005Z,3.70
2022-11-29T00:36:47.383Z,3.70
2022-11-29T00:39:17.037Z,3.70
2022-11-29T00:41:45.725Z,3.70
2022-11-29T00:44:19.649Z,3.70
2022-11-29T00:46:49.099Z,3.90
2022-11-29T00:49:18.064Z,4.40
2022-11-29T00:51:46.394Z,4.60
2022-11-29T00:54:16.520Z,4.60
2022-11-29T00:56:45.186Z,4.50
2022-11-29T00:59:13.512Z,4.20
2022-11-29T01:01:41.917Z,4.10
2022-11-29T01:04:10.241Z,3.90
2022-11-29T01:06:38.759Z,3.90
2022-11-29T01:09:07.150Z,3.80
2022-11-29T01:11:37.110Z,3.80
2022-11-29T01:14:05.810Z,3.70
2022-11-29T01:16:34.526Z,3.70
2022-11-29T01:19:03.436Z,3.60
2022-11-29T01:21:32.545Z,3.60
2022-11-29T01:24:01.683Z,3.60
2022-11-29T01:26:31.823Z,3.70
2022-11-29T01:29:01.824Z,3.80
2022-11-29T01:31:32.894Z,3.70
2022-11-29T01:34:04.059Z,3.70
2022-11-29T01:36:32.679Z,3.70
2022-11-29T01:39:02.311Z,3.60
2022-11-29T01:41:32.760Z,3.60
2022-11-29T01:44:05.404Z,3.70
2022-11-29T01:46:35.819Z,3.60
2022-11-29T01:49:08.613Z,3.60
2022-11-29T01:51:40.324Z,3.60
2022-11-29T01:54:10.945Z,3.50
2022-11-29T01:56:40.026Z,3.60
2022-11-29T01:59:15.068Z,3.80
2022-11-29T02:01:43.426Z,4.00
2022-11-29T02:04:12.620Z,4.00
2022-11-29T02:06:44.504Z,4.00
2022-11-29T02:09:20.378Z,4.00
2022-11-29T02:12:14.519Z,3.90
2022-11-29T02:15:08.361Z,3.80
2022-11-29T02:17:49.135Z,3.60
2022-11-29T02:20:45.816Z,3.50
2022-11-29T02:23:40.441Z,3.50
2022-11-29T02:26:19.679Z,3.30
2022-11-29T02:29:30.722Z,3.30
2022-11-29T02:32:30.947Z,3.30
2022-11-29T02:35:11.631Z,3.30
2022-11-29T02:37:55.904Z,3.40
2022-11-29T02:40:55.377Z,3.30
2022-11-29T02:43:41.550Z,3.20
2022-11-29T02:46:23.976Z,3.20
2022-11-29T02:48:59.278Z,3.40
2022-11-29T02:51:35.925Z,3.40
2022-11-29T02:54:14.916Z,3.50
2022-11-29T02:56:47.535Z,3.40
2022-11-29T02:59:25.005Z,3.40
2022-11-29T03:02:02.833Z,3.40
2022-11-29T03:04:37.690Z,3.50
2022-11-29T03:07:14.380Z,3.50
2022-11-29T03:09:47.419Z,3.40
2022-11-29T03:12:25.628Z,3.40
2022-11-29T03:15:05.289Z,3.20
2022-11-29T03:17:47.644Z,3.10
2022-11-29T03:20:29.894Z,3.00
2022-11-29T03:23:15.965Z,2.90
2022-11-29T03:25:48.250Z,3.00
2022-11-29T03:28:22.183Z,3.00
2022-11-29T03:30:57.327Z,2.90
2022-11-29T03:33:31.701Z,2.80
2022-11-29T03:36:08.144Z,2.80
2022-11-29T03:38:41.885Z,2.80
2022-11-29T03:41:21.102Z,2.90
2022-11-29T03:43:56.967Z,2.90
2022-11-29T03:46:31.331Z,2.80
2022-11-29T03:49:04.323Z,2.90
2022-11-29T03:51:44.448Z,3.00
2022-11-29T03:54:19.103Z,3.20
2022-11-29T03:56:48.068Z,3.10
2022-11-29T04:02:42.597Z,3.00
2022-11-29T04:05:34.836Z,2.90
2022-11-29T04:08:29.702Z,3.00
2022-11-29T04:11:37.612Z,2.90
2022-11-29T04:14:29.008Z,2.80
2022-11-29T04:17:30.407Z,2.80
2022-11-29T04:20:40.256Z,2.80
2022-11-29T04:23:34.544Z,2.70
2022-11-29T04:26:29.731Z,2.60
2022-11-29T04:29:21.225Z,2.60
2022-11-29T04:32:08.481Z,2.50
2022-11-29T04:34:57.671Z,2.60
2022-11-29T04:37:49.885Z,2.60
2022-11-29T04:40:33.086Z,2.70
2022-11-29T04:43:37.936Z,2.80
2022-11-29T04:46:38.764Z,2.90
2022-11-29T04:49:30.048Z,2.90
2022-11-29T04:52:16.072Z,2.90
2022-11-29T04:54:53.246Z,3.00
2022-11-29T04:57:31.955Z,2.90
2022-11-29T05:00:10.114Z,3.00
2022-11-29T05:02:46.273Z,3.00
2022-11-29T05:05:24.844Z,3.00
2022-11-29T05:08:03.418Z,3.00
2022-11-29T05:10:36.156Z,3.00
2022-11-29T05:13:11.271Z,3.10
2022-11-29T05:16:03.794Z,3.10
2022-11-29T05:18:58.765Z,3.20
2022-11-29T05:21:38.763Z,3.30
2022-11-29T05:24:20.355Z,3.30
2022-11-29T05:26:56.443Z,3.30
2022-11-29T05:29:32.072Z,3.30
2022-11-29T05:32:23.446Z,3.30
2022-11-29T05:35:09.195Z,3.40
2022-11-29T05:37:46.656Z,3.30
2022-11-29T05:40:41.836Z,3.30
2022-11-29T05:43:26.581Z,3.40
2022-11-29T05:46:03.353Z,3.40
2022-11-29T05:48:45.141Z,3.40
2022-11-29T05:51:22.197Z,3.40
2022-11-29T05:54:00.488Z,3.50
2022-11-29T05:56:43.125Z,3.50
2022-11-29T05:59:15.209Z,3.50
2022-11-29T06:01:51.384Z,3.50
2022-11-29T06:04:24.614Z,3.50
2022-11-29T06:07:03.847Z,3.50
2022-11-29T06:09:39.895Z,3.50
2022-11-29T06:12:19.522Z,3.40
2022-11-29T06:15:13.955Z,3.40
2022-11-29T06:17:58.648Z,3.40
2022-11-29T06:20:46.628Z,3.50
2022-11-29T06:23:45.065Z,3.50
2022-11-29T06:26:29.314Z,3.50
2022-11-29T06:29:19.153Z,3.50
2022-11-29T06:31:52.821Z,3.40
2022-11-29T06:34:31.025Z,3.40
2022-11-29T06:37:06.044Z,3.40
2022-11-29T06:39:34.899Z,3.40
2022-11-29T06:42:04.670Z,3.40
2022-11-29T06:44:34.219Z,3.40
2022-11-29T06:47:08.619Z,3.30
2022-11-29T06:49:44.215Z,3.30
2022-11-29T06:52:25.693Z,3.20
2022-11-29T06:55:11.817Z,3.20
2022-11-29T06:58:03.298Z,3.10
2022-11-29T07:00:43.288Z,3.10
2022-11-29T07:03:29.363Z,3.10
2022-11-29T07:05:59.325Z,3.20
2022-11-29T07:08:28.034Z,3.30
2022-11-29T07:10:56.904Z,3.30
2022-11-29T07:13:27.243Z,3.30
2022-11-29T07:16:04.421Z,3.30
2022-11-29T07:18:40.613Z,3.30
2022-11-29T07:21:19.845Z,3.30
2022-11-29T07:23:58.695Z,3.20
2022-11-29T07:26:35.210Z,3.20
2022-11-29T07:29:17.220Z,3.30
2022-11-29T07:31:53.450Z,3.30
2022-11-29T07:34:32.903Z,3.30
2022-11-29T07:37:07.284Z,3.30
2022-11-29T07:39:45.284Z,3.30
2022-11-29T07:42:21.949Z,3.30
2022-11-29T07:45:01.168Z,3.30
2022-11-29T07:47:35.311Z,3.30
2022-11-29T07:50:03.921Z,3.30
2022-11-29T07:52:32.270Z,3.20
2022-11-29T07:55:00.622Z,3.20
2022-11-29T07:57:29.054Z,3.30
2022-11-29T07:59:58.718Z,3.40
2022-11-29T08:02:30.955Z,3.40
2022-11-29T08:04:59.620Z,3.40
2022-11-29T08:07:28.035Z,3.30
2022-11-29T08:09:56.442Z,3.40
2022-11-29T08:12:24.762Z,3.30
2022-11-29T08:14:53.006Z,3.30
2022-11-29T08:17:23.163Z,3.30
2022-11-29T08:19:51.468Z,3.30
2022-11-29T08:22:19.719Z,3.40
2022-11-29T08:24:48.334Z,3.50
2022-11-29T08:27:16.945Z,3.50
2022-11-29T08:29:45.195Z,3.50
2022-11-29T08:32:13.480Z,3.60
2022-11-29T08:34:43.323Z,3.60
2022-11-29T08:37:14.166Z,3.70
2022-11-29T08:39:42.518Z,3.70
2022-11-29T08:42:10.847Z,3.70
2022-11-29T08:44:39.133Z,3.80
2022-11-29T08:47:24.548Z,3.90
2022-11-29T08:50:02.816Z,3.80
2022-11-29T08:52:49.629Z,3.90
2022-11-29T08:55:18.918Z,3.90
2022-11-29T08:57:47.167Z,3.90
2022-11-29T09:00:16.502Z,3.90
2022-11-29T09:02:44.888Z,3.90
2022-11-29T09:05:15.219Z,3.90
2022-11-29T09:07:43.928Z,4.00
2022-11-29T09:10:12.652Z,4.10
2022-11-29T09:12:41.731Z,4.20
2022-11-29T09:15:11.684Z,4.30
2022-11-29T09:17:39.996Z,4.40
2022-11-29T09:20:09.621Z,4.40
2022-11-29T09:22:39.307Z,4.50
2022-11-29T09:25:08.395Z,4.60
2022-11-29T09:27:36.743Z,4.60
2022-11-29T09:30:05.775Z,4.80
2022-11-29T09:32:35.289Z,4.80
2022-11-29T09:35:03.888Z,4.90
2022-11-29T09:37:32.195Z,4.90
2022-11-29T09:40:01.805Z,4.90
2022-11-29T09:42:43.504Z,4.90
2022-11-29T09:45:14.595Z,5.00
2022-11-29T09:48:16.212Z,5.00
2022-11-29T09:50:52.000Z,5.00
2022-11-29T09:53:36.000Z,5.00
2022-11-29T09:56:19.664Z,5.10
2022-11-29T09:58:53.038Z,5.20
2022-11-29T10:01:25.824Z,5.30
2022-11-29T10:03:58.571Z,5.40
2022-11-29T10:06:32.056Z,5.30
2022-11-29T10:09:04.381Z,5.30
2022-11-29T10:11:38.301Z,5.40
2022-11-29T10:14:17.242Z,5.50
2022-11-29T10:16:50.980Z,5.70
2022-11-29T10:19:28.197Z,5.80
2022-11-29T10:22:01.844Z,5.80
2022-11-29T10:24:31.381Z,5.90
2022-11-29T10:27:01.406Z,6.00
2022-11-29T10:29:29.722Z,6.00
2022-11-29T10:32:01.949Z,5.90
2022-11-29T10:34:32.853Z,6.00
2022-11-29T10:37:02.834Z,6.10
2022-11-29T10:39:37.245Z,6.20
2022-11-29T10:42:34.020Z,6.40
2022-11-29T10:45:03.006Z,6.40
2022-11-29T10:47:32.377Z,6.70
2022-11-29T10:50:00.810Z,6.80
2022-11-29T10:52:29.174Z,6.80
2022-11-29T10:54:59.711Z,6.70
2022-11-29T10:57:29.793Z,6.70
2022-11-29T11:00:03.885Z,6.80
2022-11-29T11:02:33.119Z,6.80
2022-11-29T11:05:02.377Z,6.80
2022-11-29T11:07:33.436Z,6.90
2022-11-29T11:10:17.776Z,6.90
2022-11-29T11:13:03.035Z,6.90
2022-11-29T11:15:33.669Z,7.00
2022-11-29T11:18:05.149Z,7.20
2022-11-29T11:20:34.886Z,7.30
2022-11-29T11:23:05.380Z,7.30
2022-11-29T11:25:35.951Z,7.20
2022-11-29T11:28:18.234Z,7.20
2022-11-29T11:30:52.267Z,7.10
2022-11-29T11:33:23.812Z,7.20
2022-11-29T11:36:11.537Z,7.30
2022-11-29T11:38:42.418Z,7.30
2022-11-29T11:41:47.619Z,7.40
2022-11-29T11:44:49.533Z,7.40
2022-11-29T11:47:20.945Z,7.50
2022-11-29T11:49:51.477Z,7.60
2022-11-29T11:52:22.957Z,7.80
2022-11-29T11:54:58.861Z,7.70
2022-11-29T11:57:28.466Z,7.70
2022-11-29T12:00:06.300Z,7.70
2022-11-29T12:02:39.921Z,7.70
2022-11-29T12:05:15.015Z,7.70
2022-11-29T12:10:40.965Z,7.60
2022-11-29T12:13:18.589Z,7.80
2022-11-29T12:15:51.032Z,7.90
2022-11-29T12:18:27.297Z,8.00
2022-11-29T12:20:59.595Z,8.00
2022-11-29T12:23:38.244Z,7.90
2022-11-29T12:26:34.793Z,7.90
2022-11-29T12:29:10.836Z,7.90
2022-11-29T12:31:55.412Z,7.90
2022-11-29T12:34:43.145Z,8.10
2022-11-29T12:37:18.329Z,8.10
2022-11-29T12:39:58.897Z,8.20
2022-11-29T12:42:40.778Z,8.10
2022-11-29T12:45:34.548Z,7.90
2022-11-29T12:48:17.631Z,7.90
2022-11-29T12:50:53.820Z,8.00
2022-11-29T12:53:37.430Z,8.00
2022-11-29T12:56:15.755Z,8.00
2022-11-29T12:58:57.515Z,7.90
2022-11-29T13:01:33.719Z,7.90
2022-11-29T13:04:12.655Z,7.80
2022-11-29T13:06:48.039Z,7.90
2022-11-29T13:09:47.076Z,7.80
2022-11-29T13:12:19.669Z,7.80
2022-11-29T13:14:58.790Z,7.70
2022-11-29T13:17:34.654Z,7.60
2022-11-29T13:20:20.641Z,7.60
2022-11-29T13:22:56.774Z,7.60
2022-11-29T13:25:29.285Z,7.50
2022-11-29T13:28:01.485Z,7.50
2022-11-29T13:30:29.899Z,7.60
2022-11-29T13:33:06.851Z,7.60
2022-11-29T13:35:43.267Z,7.60
2022-11-29T13:38:19.759Z,7.70
2022-11-29T13:40:57.295Z,7.70
2022-11-29T13:43:31.091Z,7.80
2022-11-29T13:46:10.749Z,7.90
2022-11-29T13:48:49.761Z,7.80
2022-11-29T13:51:31.652Z,7.80
2022-11-29T13:54:03.129Z,7.90
2022-11-29T13:56:36.969Z,7.90
2022-11-29T13:59:09.734Z,7.80
2022-11-29T14:01:46.589Z,7.80
2022-11-29T14:04:28.394Z,7.70
2022-11-29T14:07:10.950Z,7.70
2022-11-29T14:09:56.840Z,7.80
2022-11-29T14:12:36.818Z,7.80
2022-11-29T14:15:18.739Z,7.70
2022-11-29T14:17:54.150Z,7.80
2022-11-29T14:20:56.673Z,7.70
2022-11-29T14:23:38.056Z,7.60
2022-11-29T14:26:31.459Z,7.60
2022-11-29T14:29:00.656Z,7.60
2022-11-29T14:31:52.181Z,7.70
2022-11-29T14:34:34.201Z,7.70
2022-11-29T14:37:15.149Z,7.60
2022-11-29T14:39:48.022Z,7.70
2022-11-29T14:42:19.411Z,7.70
2022-11-29T14:44:52.982Z,7.70
2022-11-29T14:47:29.878Z,7.70
2022-11-29T14:50:00.782Z,7.70
2022-11-29T14:52:31.767Z,7.70
2022-11-29T14:55:09.444Z,7.70
2022-11-29T14:58:06.973Z,7.60
2022-11-29T15:00:43.544Z,7.60
2022-11-29T15:03:14.198Z,7.60
2022-11-29T15:05:45.196Z,7.60
2022-11-29T15:08:18.939Z,7.60
2022-11-29T15:10:52.954Z,7.50
2022-11-29T15:13:28.801Z,7.40
2022-11-29T15:16:25.384Z,7.40
2022-11-29T15:19:09.099Z,7.30
2022-11-29T15:21:48.721Z,7.40
2022-11-29T15:24:24.994Z,7.30
2022-11-29T15:26:58.940Z,7.40
2022-11-29T15:29:31.088Z,7.30
2022-11-29T15:32:02.330Z,7.30
2022-11-29T15:34:36.042Z,7.30
2022-11-29T15:37:04.956Z,7.20
2022-11-29T15:39:35.401Z,7.20
2022-11-29T15:42:10.597Z,7.20
2022-11-29T15:44:39.307Z,7.20
2022-11-29T15:47:21.779Z,7.10
2022-11-29T15:49:53.184Z,7.10
2022-11-29T15:52:29.081Z,7.10
2022-11-29T15:55:01.364Z,7.00
2022-11-29T15:57:36.227Z,7.00
2022-11-29T16:00:08.250Z,6.90
2022-11-29T16:02:39.677Z,6.90
2022-11-29T16:05:17.190Z,6.80
2022-11-29T16:07:47.300Z,6.80
2022-11-29T16:10:20.360Z,6.80
2022-11-29T16:12:55.533Z,6.80
2022-11-29T16:15:31.571Z,6.80
2022-11-29T16:18:05.045Z,6.70
2022-11-29T16:20:33.627Z,6.80
2022-11-29T16:23:11.380Z,6.90
2022-11-29T16:25:56.724Z,6.80
2022-11-29T16:28:30.959Z,6.80
2022-11-29T16:31:00.121Z,6.90
2022-11-29T16:33:28.794Z,6.90
2022-11-29T16:36:08.223Z,6.90
2022-11-29T16:38:36.617Z,6.90
2022-11-29T16:41:07.513Z,6.90
2022-11-29T16:43:54.084Z,6.80
2022-11-29T16:46:35.173Z,6.80
2022-11-29T16:49:25.392Z,6.80
2022-11-29T16:51:54.982Z,6.70
2022-11-29T16:54:27.867Z,6.70
2022-11-29T16:56:58.098Z,6.70
2022-11-29T17:01:57.654Z,6.80
2022-11-29T17:04:26.233Z,6.80
2022-11-29T17:06:55.550Z,6.80
2022-11-29T17:09:27.416Z,6.80
2022-11-29T17:11:56.435Z,6.90
2022-11-29T17:14:24.773Z,6.90
2022-11-29T17:16:54.603Z,6.80
2022-11-29T17:19:23.853Z,6.70
2022-11-29T17:21:53.157Z,6.70
2022-11-29T17:24:23.503Z,6.70
2022-11-29T17:26:52.159Z,6.70
2022-11-29T17:29:20.625Z,6.70
2022-11-29T17:31:50.555Z,6.60
2022-11-29T17:34:20.527Z,6.70
2022-11-29T17:36:49.236Z,6.60
2022-11-29T17:39:20.120Z,6.50
2022-11-29T17:41:48.687Z,6.50
2022-11-29T17:44:17.571Z,6.50
2022-11-29T17:46:46.020Z,6.50
2022-11-29T17:49:18.781Z,6.50
2022-11-29T17:51:53.063Z,6.50
2022-11-29T17:54:22.256Z,6.50
2022-11-29T17:56:51.051Z,6.50
2022-11-29T17:59:19.464Z,6.60
2022-11-29T18:01:48.122Z,6.50
2022-11-29T18:04:16.702Z,6.60
2022-11-29T18:06:49.843Z,6.60
2022-11-29T18:09:20.529Z,6.60
2022-11-29T18:11:50.457Z,6.60
2022-11-29T18:14:22.696Z,6.60
2022-11-29T18:16:51.459Z,6.60
2022-11-29T18:19:21.693Z,6.60
2022-11-29T18:21:50.393Z,6.60
2022-11-29T18:24:20.531Z,6.60
2022-11-29T18:26:48.957Z,6.60
2022-11-29T18:29:17.480Z,6.60
2022-11-29T18:31:46.552Z,6.60
2022-11-29T18:34:15.674Z,6.60
2022-11-29T18:36:46.316Z,6.60
2022-11-29T18:39:16.130Z,6.60
2022-11-29T18:41:47.688Z,6.60
2022-11-29T18:44:20.240Z,6.60
2022-11-29T18:46:48.702Z,6.60
2022-11-29T18:49:19.134Z,6.60
2022-11-29T18:51:48.209Z,6.60
2022-11-29T18:54:17.903Z,6.60
2022-11-29T18:56:47.898Z,6.60
2022-11-29T18:59:18.305Z,6.70
2022-11-29T19:01:48.017Z,6.60
2022-11-29T19:04:18.893Z,6.60
2022-11-29T19:06:48.059Z,6.60
2022-11-29T19:09:17.775Z,6.50
2022-11-29T19:11:48.780Z,6.50
2022-11-29T19:14:19.531Z,6.60
2022-11-29T19:16:50.011Z,6.50
2022-11-29T19:19:19.837Z,6.50
2022-11-29T19:21:48.559Z,6.50
2022-11-29T19:24:18.321Z,6.60
2022-11-29T19:26:48.971Z,6.60
2022-11-29T19:29:17.654Z,6.50
2022-11-29T19:31:46.130Z,6.50
2022-11-29T19:34:14.659Z,6.50
2022-11-29T19:36:44.414Z,6.60
2022-11-29T19:39:15.022Z,6.60
2022-11-29T19:41:44.808Z,6.50
2022-11-29T19:44:14.691Z,6.60
2022-11-29T19:46:45.641Z,6.50
2022-11-29T19:49:14.069Z,6.50
2022-11-29T19:51:42.598Z,6.60
2022-11-29T19:54:12.041Z,6.50
2022-11-29T19:56:40.949Z,6.50
2022-11-29T19:59:09.873Z,6.50
2022-11-29T20:01:42.347Z,6.50
2022-11-29T20:04:12.879Z,6.50
2022-11-29T20:06:41.815Z,6.50
2022-11-29T20:09:11.059Z,6.50
2022-11-29T20:11:39.623Z,6.50
2022-11-29T20:14:08.999Z,6.50
2022-11-29T20:16:39.366Z,6.50
2022-11-29T20:19:12.441Z,6.50
2022-11-29T20:21:44.150Z,6.50
2022-11-29T20:24:14.464Z,6.50
2022-11-29T20:26:45.749Z,6.50
2022-11-29T20:29:14.736Z,6.50
2022-11-29T20:31:50.019Z,6.50
2022-11-29T20:34:20.064Z,6.50
2022-11-29T20:37:07.556Z,6.50
2022-11-29T20:39:45.199Z,6.50
2022-11-29T20:42:48.022Z,6.50
2022-11-29T20:45:17.738Z,6.50
2022-11-29T20:47:54.316Z,6.50
2022-11-29T20:50:24.759Z,6.50
2022-11-29T20:53:21.985Z,6.40
2022-11-29T20:55:50.477Z,6.50
2022-11-29T20:58:19.614Z,6.50
2022-11-29T21:00:48.055Z,6.50
2022-11-29T21:03:19.029Z,6.50
2022-11-29T21:05:47.804Z,6.50
2022-11-29T21:08:17.824Z,6.40
2022-11-29T21:10:46.585Z,6.40
2022-11-29T21:13:16.166Z,6.40
2022-11-29T21:15:45.469Z,6.30
2022-11-29T21:18:25.229Z,6.30
2022-11-29T21:21:07.355Z,6.30
2022-11-29T21:23:46.367Z,6.30
2022-11-29T21:26:18.260Z,6.40
2022-11-29T21:28:57.412Z,6.40
2022-11-29T21:31:26.271Z,6.40
2022-11-29T21:33:56.566Z,6.30
2022-11-29T21:36:25.015Z,6.20
2022-11-29T21:38:55.233Z,6.20
2022-11-29T21:41:24.222Z,6.30
2022-11-29T21:44:06.676Z,6.30
2022-11-29T21:46:36.280Z,6.30
2022-11-29T21:49:06.327Z,6.30
2022-11-29T21:51:35.132Z,6.20
2022-11-29T21:54:03.570Z,6.30
2022-11-29T21:56:31.932Z,6.20
2022-11-29T21:59:00.270Z,6.20
2022-11-29T22:01:29.478Z,6.10
2022-11-29T22:03:58.158Z,6.10
2022-11-29T22:06:28.350Z,6.20
2022-11-29T22:08:57.006Z,6.10
2022-11-29T22:11:31.934Z,6.10
2022-11-29T22:14:18.181Z,6.10
2022-11-29T22:16:48.563Z,6.10
2022-11-29T22:19:18.475Z,6.10
2022-11-29T22:21:50.567Z,6.10
2022-11-29T22:24:20.433Z,6.10
2022-11-29T22:26:49.852Z,6.10
2022-11-29T22:29:18.524Z,6.10
2022-11-29T22:31:49.012Z,6.10
2022-11-29T22:34:17.713Z,6.10
2022-11-29T22:36:47.448Z,6.00
2022-11-29T22:39:15.760Z,6.00
2022-11-29T22:41:46.112Z,6.00
2022-11-29T22:44:17.720Z,6.00
2022-11-29T22:46:46.041Z,6.00
2022-11-29T22:49:14.415Z,6.00
2022-11-29T22:51:42.894Z,6.00
2022-11-29T22:54:15.418Z,6.00
2022-11-29T22:56:45.492Z,6.10
2022-11-29T22:59:14.239Z,6.10
2022-11-29T23:01:43.549Z,6.10
2022-11-29T23:04:13.448Z,6.10
2022-11-29T23:06:43.388Z,6.10
2022-11-29T23:09:16.734Z,6.10
2022-11-29T23:11:50.945Z,6.10
2022-11-29T23:14:19.426Z,6.10
2022-11-29T23:16:47.778Z,6.00
2022-11-29T23:19:16.290Z,6.00
2022-11-29T23:21:46.287Z,6.10
2022-11-29T23:24:16.784Z,6.20
2022-11-29T23:26:46.734Z,6.20
2022-11-29T23:29:17.168Z,6.10
2022-11-29T23:31:46.686Z,6.10
2022-11-29T23:34:15.561Z,6.10
2022-11-29T23:36:48.263Z,6.10
2022-11-29T23:39:21.088Z,6.10
2022-11-29T23:41:49.341Z,6.20
2022-11-29T23:44:17.878Z,6.10
2022-11-29T23:46:46.139Z,6.10
2022-11-29T23:49:14.739Z,6.10
2022-11-29T23:51:42.993Z,6.10
2022-11-29T23:54:11.282Z,6.20
2022-11-29T23:56:40.975Z,6.20
2022-11-29T23:59:09.353Z,6.20
